createdAt,value
2022-10-28T00:02:22.364Z,14.22
2022-10-28T00:07:24.196Z,14.21
2022-10-28T00:12:25.984Z,14.21
2022-10-28T00:17:27.766Z,14.21
2022-10-28T00:22:29.695Z,14.19
2022-10-28T00:27:33.302Z,14.21
2022-10-28T00:32:35.151Z,14.29
2022-10-28T00:37:36.960Z,14.39
2022-10-28T00:42:38.819Z,14.49
2022-10-28T00:47:56.083Z,14.59
2022-10-28T00:53:21.663Z,14.68
2022-10-28T00:58:26.833Z,14.85
2022-10-28T01:03:28.857Z,15.00
2022-10-28T01:08:30.710Z,15.06
2022-10-28T01:13:35.463Z,15.06
2022-10-28T01:18:54.522Z,15.05
2022-10-28T01:24:08.416Z,15.02
2022-10-28T01:29:21.971Z,14.99
2022-10-28T01:34:47.519Z,14.91
2022-10-28T01:39:52.059Z,14.85
2022-10-28T01:45:19.973Z,14.83
2022-10-28T01:50:47.339Z,14.78
2022-10-28T01:55:55.279Z,14.74
2022-10-28T02:00:59.862Z,14.71
2022-10-28T02:06:05.452Z,14.69
2022-10-28T02:11:31.650Z,14.68
2022-10-28T02:16:41.750Z,14.66
2022-10-28T02:22:10.274Z,14.65
2022-10-28T02:27:26.937Z,14.62
2022-10-28T02:32:32.429Z,14.57
2022-10-28T02:37:38.888Z,14.55
2022-10-28T02:42:50.766Z,14.55
2022-10-28T02:48:01.943Z,14.56
2022-10-28T02:53:16.371Z,14.54
2022-10-28T02:58:18.719Z,14.53
2022-10-28T03:03:20.697Z,14.53
2022-10-28T03:08:24.806Z,14.54
2022-10-28T03:13:26.632Z,14.54
2022-10-28T03:18:28.635Z,14.49
2022-10-28T03:23:30.450Z,14.47
2022-10-28T03:28:32.372Z,14.47
2022-10-28T03:33:34.165Z,14.46
2022-10-28T03:38:35.944Z,14.43
2022-10-28T03:43:37.945Z,14.40
2022-10-28T03:48:39.731Z,14.35
2022-10-28T03:53:41.546Z,14.31
2022-10-28T03:58:47.374Z,14.24
2022-10-28T04:03:49.230Z,14.21
2022-10-28T04:08:50.990Z,14.16
2022-10-28T04:13:52.978Z,14.14
2022-10-28T04:18:54.863Z,14.08
2022-10-28T04:23:56.697Z,14.05
2022-10-28T04:28:58.482Z,14.04
2022-10-28T04:34:00.345Z,14.05
2022-10-28T04:39:02.266Z,14.03
2022-10-28T04:44:04.293Z,14.00
2022-10-28T04:49:06.302Z,13.97
2022-10-28T04:54:08.535Z,13.96
2022-10-28T04:59:10.345Z,13.96
2022-10-28T05:04:12.149Z,13.94
2022-10-28T05:09:14.480Z,13.93
2022-10-28T05:14:16.469Z,13.92
2022-10-28T05:19:18.851Z,13.94
2022-10-28T05:24:20.692Z,13.93
2022-10-28T05:29:22.608Z,13.91
2022-10-28T05:34:24.331Z,13.87
2022-10-28T05:39:26.262Z,13.86
2022-10-28T05:44:28.074Z,13.88
2022-10-28T05:49:30.083Z,13.88
2022-10-28T05:54:31.967Z,13.84
2022-10-28T05:59:33.901Z,13.82
2022-10-28T06:04:35.728Z,13.80
2022-10-28T06:09:37.815Z,13.80
2022-10-28T06:14:38.159Z,13.79
2022-10-28T06:19:40.008Z,13.80
2022-10-28T06:24:41.930Z,13.80
2022-10-28T06:29:44.200Z,13.80
2022-10-28T06:34:46.078Z,13.82
2022-10-28T06:39:51.360Z,13.83
2022-10-28T06:44:53.348Z,13.85
2022-10-28T06:49:56.813Z,13.86
2022-10-28T06:54:58.693Z,13.89
2022-10-28T07:00:00.670Z,13.93
2022-10-28T07:05:02.942Z,14.00
2022-10-28T07:10:07.971Z,14.11
2022-10-28T07:15:10.613Z,14.26
2022-10-28T07:20:12.782Z,14.39
2022-10-28T07:25:14.950Z,14.53
2022-10-28T07:30:16.905Z,14.67
2022-10-28T07:35:19.279Z,14.73
2022-10-28T07:40:23.486Z,14.82
2022-10-28T07:45:25.766Z,14.94
2022-10-28T07:50:27.818Z,15.06
2022-10-28T07:55:29.802Z,15.20
2022-10-28T08:00:32.331Z,15.35
2022-10-28T08:05:34.286Z,15.51
2022-10-28T08:10:36.235Z,15.70
2022-10-28T08:15:38.394Z,15.83
2022-10-28T08:20:40.557Z,15.94
2022-10-28T08:25:52.991Z,16.02
2022-10-28T08:31:08.230Z,16.07
2022-10-28T08:36:13.816Z,16.07
2022-10-28T08:41:49.922Z,16.11
2022-10-28T08:47:07.766Z,16.10
2022-10-28T08:52:09.933Z,16.09
2022-10-28T08:57:19.067Z,16.10
2022-10-28T09:02:26.241Z,16.11
2022-10-28T09:07:28.478Z,16.14
2022-10-28T09:13:02.107Z,16.26
2022-10-28T09:18:42.194Z,16.33
2022-10-28T09:23:55.547Z,16.33
2022-10-28T09:29:16.546Z,16.29
2022-10-28T09:34:36.427Z,16.29
2022-10-28T09:39:51.426Z,16.32
2022-10-28T09:44:59.165Z,16.49
2022-10-28T09:50:02.280Z,16.74
2022-10-28T09:55:16.505Z,16.89
2022-10-28T10:00:19.011Z,17.01
2022-10-28T10:05:21.459Z,17.11
2022-10-28T10:10:31.736Z,17.07
2022-10-28T10:15:39.802Z,17.02
2022-10-28T10:20:58.717Z,17.02
2022-10-28T10:26:05.505Z,17.04
2022-10-28T10:31:21.397Z,17.24
2022-10-28T10:36:29.171Z,17.45
2022-10-28T10:41:41.206Z,17.55
2022-10-28T10:46:43.053Z,17.54
2022-10-28T10:51:53.356Z,17.51
2022-10-28T10:57:08.826Z,17.47
2022-10-28T11:02:32.647Z,17.38
2022-10-28T11:07:36.649Z,17.31
2022-10-28T11:12:51.123Z,17.28
2022-10-28T11:18:11.638Z,17.32
2022-10-28T11:23:31.643Z,17.41
2022-10-28T11:28:48.610Z,17.53
2022-10-28T11:34:05.575Z,17.65
2022-10-28T11:39:13.067Z,17.80
2022-10-28T11:44:44.050Z,17.95
2022-10-28T11:50:18.129Z,18.06
2022-10-28T11:55:42.789Z,18.27
2022-10-28T12:00:53.367Z,18.29
2022-10-28T12:06:10.658Z,18.31
2022-10-28T12:11:12.440Z,18.38
2022-10-28T12:16:44.838Z,18.45
2022-10-28T12:22:02.591Z,18.50
2022-10-28T12:27:22.691Z,18.52
2022-10-28T12:32:31.337Z,18.50
2022-10-28T12:37:50.138Z,18.46
2022-10-28T12:43:19.739Z,18.37
2022-10-28T12:48:33.024Z,18.27
2022-10-28T12:53:39.887Z,18.18
2022-10-28T12:58:47.791Z,18.10
2022-10-28T13:03:50.767Z,18.03
2022-10-28T13:09:37.964Z,17.98
2022-10-28T13:14:59.477Z,17.95
2022-10-28T13:20:12.528Z,17.92
2022-10-28T13:25:39.470Z,17.95
2022-10-28T13:31:03.697Z,17.98
2022-10-28T13:36:17.891Z,18.00
2022-10-28T13:41:48.768Z,18.03
2022-10-28T13:47:00.053Z,18.12
2022-10-28T13:52:08.131Z,18.17
2022-10-28T13:57:14.490Z,18.15
2022-10-28T14:02:56.357Z,18.07
2022-10-28T14:08:04.188Z,18.00
2022-10-28T14:13:21.649Z,17.92
2022-10-28T14:24:08.134Z,17.75
2022-10-28T14:29:43.098Z,17.66
2022-10-28T14:34:46.049Z,17.57
2022-10-28T14:40:14.418Z,17.47
2022-10-28T14:45:37.382Z,17.37
2022-10-28T14:50:49.744Z,17.25
2022-10-28T14:56:05.539Z,17.14
2022-10-28T15:01:28.351Z,17.05
2022-10-28T15:06:34.189Z,16.97
2022-10-28T15:11:36.350Z,16.94
2022-10-28T15:16:49.189Z,16.89
2022-10-28T15:22:10.753Z,16.85
2022-10-28T15:27:13.922Z,16.81
2022-10-28T15:32:21.827Z,16.80
2022-10-28T15:37:30.045Z,16.76
2022-10-28T15:42:37.635Z,16.73
2022-10-28T15:47:39.475Z,16.73
2022-10-28T15:52:48.177Z,16.67
2022-10-28T15:57:55.259Z,16.63
2022-10-28T16:03:05.699Z,16.60
2022-10-28T16:08:41.087Z,16.58
2022-10-28T16:13:48.635Z,16.54
2022-10-28T16:18:54.435Z,16.55
2022-10-28T16:23:56.507Z,16.53
2022-10-28T16:28:58.397Z,16.51
2022-10-28T16:34:00.405Z,16.50
2022-10-28T16:39:02.138Z,16.47
2022-10-28T16:44:17.516Z,16.45
2022-10-28T16:49:19.287Z,16.44
2022-10-28T16:54:21.073Z,16.40
2022-10-28T16:59:22.978Z,16.38
2022-10-28T17:04:24.727Z,16.37
2022-10-28T17:09:26.563Z,16.34
2022-10-28T17:14:28.350Z,16.31
2022-10-28T17:19:30.131Z,16.28
2022-10-28T17:24:31.986Z,16.29
2022-10-28T17:29:33.805Z,16.28
2022-10-28T17:34:36.033Z,16.26
2022-10-28T17:39:38.039Z,16.24
2022-10-28T17:44:40.020Z,16.20
2022-10-28T17:49:41.877Z,16.16
2022-10-28T17:54:43.688Z,16.14
2022-10-28T17:59:45.877Z,16.09
2022-10-28T18:04:47.724Z,16.04
2022-10-28T18:09:49.788Z,16.00
2022-10-28T18:14:51.652Z,15.98
2022-10-28T18:19:53.553Z,15.92
2022-10-28T18:24:56.781Z,15.87
2022-10-28T18:29:58.549Z,15.83
2022-10-28T18:35:00.418Z,15.76
2022-10-28T18:40:02.181Z,15.71
2022-10-28T18:45:05.657Z,15.68
2022-10-28T18:50:07.840Z,15.64
2022-10-28T18:55:09.916Z,15.61
2022-10-28T19:00:18.030Z,15.57
2022-10-28T19:05:21.053Z,15.51
2022-10-28T19:10:22.883Z,15.47
2022-10-28T19:15:24.677Z,15.45
2022-10-28T19:20:26.481Z,15.43
2022-10-28T19:25:28.303Z,15.43
2022-10-28T19:30:30.176Z,15.42
2022-10-28T19:35:33.279Z,15.42
2022-10-28T19:40:35.117Z,15.41
2022-10-28T19:45:36.995Z,15.43
2022-10-28T19:50:38.891Z,15.46
2022-10-28T19:55:40.694Z,15.46
2022-10-28T20:00:42.545Z,15.45
2022-10-28T20:05:44.419Z,15.43
2022-10-28T20:10:57.487Z,15.44
2022-10-28T20:16:05.069Z,15.46
2022-10-28T20:21:08.025Z,15.49
2022-10-28T20:26:10.804Z,15.46
2022-10-28T20:31:15.721Z,15.42
2022-10-28T20:36:29.264Z,15.36
2022-10-28T20:41:33.424Z,15.33
2022-10-28T20:46:35.731Z,15.28
2022-10-28T20:51:37.568Z,15.26
2022-10-28T20:56:40.466Z,15.25
2022-10-28T21:01:42.380Z,15.29
2022-10-28T21:06:44.439Z,15.33
2022-10-28T21:11:46.329Z,15.35
2022-10-28T21:16:51.530Z,15.34
2022-10-28T21:21:53.476Z,15.32
2022-10-28T21:26:55.277Z,15.28
2022-10-28T21:31:57.054Z,15.21
2022-10-28T21:36:58.819Z,15.15
2022-10-28T21:42:00.533Z,15.11
2022-10-28T21:47:02.247Z,15.06
2022-10-28T21:52:04.199Z,15.04
2022-10-28T21:57:07.238Z,15.02
2022-10-28T22:02:09.323Z,15.01
2022-10-28T22:07:11.257Z,15.01
2022-10-28T22:12:13.086Z,15.01
2022-10-28T22:17:15.100Z,14.98
2022-10-28T22:22:16.842Z,14.95
2022-10-28T22:27:20.035Z,14.92
2022-10-28T22:32:21.823Z,14.88
2022-10-28T22:37:23.620Z,14.86
2022-10-28T22:42:25.802Z,14.85
2022-10-28T22:47:27.718Z,14.81
2022-10-28T22:52:29.501Z,14.79
2022-10-28T22:57:31.271Z,14.80
2022-10-28T23:02:33.191Z,14.81
2022-10-28T23:07:35.028Z,14.79
2022-10-28T23:12:36.823Z,14.78
2022-10-28T23:17:38.994Z,14.76
2022-10-28T23:22:40.841Z,14.76
2022-10-28T23:27:44.206Z,14.76
2022-10-28T23:32:46.118Z,14.81
2022-10-28T23:37:47.958Z,14.85
2022-10-28T23:42:49.803Z,14.90
2022-10-28T23:47:51.662Z,14.94
2022-10-28T23:52:55.638Z,15.06
2022-10-28T23:57:58.035Z,15.23
